sensor_id;sensor_type;location;lat;lon;timestamp;P1;durP1;ratioP1;P2;durP2;ratioP2
55078;SDS011;55187;49.496;6.010;2022-10-23T00:00:30;5.43;;;2.42;;
55078;SDS011;55187;49.496;6.010;2022-10-23T00:02:57;3.92;;;2.05;;
55078;SDS011;55187;49.496;6.010;2022-10-23T00:05:24;11.95;;;2.25;;
55078;SDS011;55187;49.496;6.010;2022-10-23T00:07:53;6.95;;;2.53;;
55078;SDS011;55187;49.496;6.010;2022-10-23T00:10:21;5.75;;;1.88;;
55078;SDS011;55187;49.496;6.010;2022-10-23T00:12:48;4.32;;;2.28;;
55078;SDS011;55187;49.496;6.010;2022-10-23T00:15:15;8.88;;;2.85;;
55078;SDS011;55187;49.496;6.010;2022-10-23T00:17:43;8.20;;;2.50;;
55078;SDS011;55187;49.496;6.010;2022-10-23T00:20:10;17.42;;;2.92;;
55078;SDS011;55187;49.496;6.010;2022-10-23T00:22:40;7.20;;;2.85;;
55078;SDS011;55187;49.496;6.010;2022-10-23T00:25:08;5.43;;;2.40;;
55078;SDS011;55187;49.496;6.010;2022-10-23T00:27:35;7.28;;;2.55;;
55078;SDS011;55187;49.496;6.010;2022-10-23T00:30:03;4.65;;;2.25;;
55078;SDS011;55187;49.496;6.010;2022-10-23T00:32:30;6.50;;;2.45;;
55078;SDS011;55187;49.496;6.010;2022-10-23T00:34:56;7.32;;;4.50;;
55078;SDS011;55187;49.496;6.010;2022-10-23T00:37:23;5.70;;;2.47;;
55078;SDS011;55187;49.496;6.010;2022-10-23T00:39:49;7.38;;;2.67;;
55078;SDS011;55187;49.496;6.010;2022-10-23T00:42:16;7.47;;;2.67;;
55078;SDS011;55187;49.496;6.010;2022-10-23T00:47:44;4.80;;;2.05;;
55078;SDS011;55187;49.496;6.010;2022-10-23T00:50:10;5.68;;;2.20;;
55078;SDS011;55187;49.496;6.010;2022-10-23T00:52:39;2.55;;;1.73;;
55078;SDS011;55187;49.496;6.010;2022-10-23T00:55:10;5.55;;;2.33;;
55078;SDS011;55187;49.496;6.010;2022-10-23T00:57:37;3.42;;;1.85;;
55078;SDS011;55187;49.496;6.010;2022-10-23T01:00:10;10.35;;;2.20;;
55078;SDS011;55187;49.496;6.010;2022-10-23T01:02:41;4.82;;;1.80;;
55078;SDS011;55187;49.496;6.010;2022-10-23T01:05:08;3.92;;;2.70;;
55078;SDS011;55187;49.496;6.010;2022-10-23T01:07:41;7.70;;;1.80;;
55078;SDS011;55187;49.496;6.010;2022-10-23T01:10:30;9.88;;;2.83;;
55078;SDS011;55187;49.496;6.010;2022-10-23T01:13:10;8.23;;;2.30;;
55078;SDS011;55187;49.496;6.010;2022-10-23T01:18:40;3.55;;;1.90;;
55078;SDS011;55187;49.496;6.010;2022-10-23T01:21:17;4.72;;;1.67;;
55078;SDS011;55187;49.496;6.010;2022-10-23T01:23:58;4.13;;;1.58;;
55078;SDS011;55187;49.496;6.010;2022-10-23T01:29:58;3.70;;;1.83;;
55078;SDS011;55187;49.496;6.010;2022-10-23T01:32:43;3.10;;;2.03;;
55078;SDS011;55187;49.496;6.010;2022-10-23T01:35:22;3.00;;;1.38;;
55078;SDS011;55187;49.496;6.010;2022-10-23T01:38:02;15.35;;;2.38;;
55078;SDS011;55187;49.496;6.010;2022-10-23T01:40:36;2.60;;;1.95;;
55078;SDS011;55187;49.496;6.010;2022-10-23T01:43:14;4.72;;;2.03;;
55078;SDS011;55187;49.496;6.010;2022-10-23T01:45:47;5.45;;;2.30;;
55078;SDS011;55187;49.496;6.010;2022-10-23T01:48:20;3.30;;;1.98;;
55078;SDS011;55187;49.496;6.010;2022-10-23T01:50:50;2.72;;;1.55;;
55078;SDS011;55187;49.496;6.010;2022-10-23T01:53:19;3.03;;;1.70;;
55078;SDS011;55187;49.496;6.010;2022-10-23T01:55:47;5.43;;;2.05;;
55078;SDS011;55187;49.496;6.010;2022-10-23T01:58:21;8.00;;;2.40;;
55078;SDS011;55187;49.496;6.010;2022-10-23T02:00:51;5.70;;;2.05;;
55078;SDS011;55187;49.496;6.010;2022-10-23T02:03:19;8.45;;;1.77;;
55078;SDS011;55187;49.496;6.010;2022-10-23T02:05:48;14.48;;;2.90;;
55078;SDS011;55187;49.496;6.010;2022-10-23T02:08:14;7.90;;;2.25;;
55078;SDS011;55187;49.496;6.010;2022-10-23T02:10:45;14.13;;;2.33;;
55078;SDS011;55187;49.496;6.010;2022-10-23T02:13:26;2.55;;;1.77;;
55078;SDS011;55187;49.496;6.010;2022-10-23T02:16:02;2.53;;;1.95;;
55078;SDS011;55187;49.496;6.010;2022-10-23T02:21:33;7.78;;;2.15;;
55078;SDS011;55187;49.496;6.010;2022-10-23T02:24:19;5.35;;;1.85;;
55078;SDS011;55187;49.496;6.010;2022-10-23T02:26:55;3.25;;;2.20;;
55078;SDS011;55187;49.496;6.010;2022-10-23T02:29:28;6.05;;;2.72;;
55078;SDS011;55187;49.496;6.010;2022-10-23T02:32:00;6.07;;;2.17;;
55078;SDS011;55187;49.496;6.010;2022-10-23T02:34:27;4.63;;;2.92;;
55078;SDS011;55187;49.496;6.010;2022-10-23T02:36:53;6.10;;;2.55;;
55078;SDS011;55187;49.496;6.010;2022-10-23T02:39:21;2.47;;;1.70;;
55078;SDS011;55187;49.496;6.010;2022-10-23T02:41:55;3.45;;;1.98;;
55078;SDS011;55187;49.496;6.010;2022-10-23T02:44:51;4.20;;;1.88;;
55078;SDS011;55187;49.496;6.010;2022-10-23T02:47:39;3.45;;;1.80;;
55078;SDS011;55187;49.496;6.010;2022-10-23T02:50:29;2.13;;;1.70;;
55078;SDS011;55187;49.496;6.010;2022-10-23T02:53:25;3.58;;;2.10;;
55078;SDS011;55187;49.496;6.010;2022-10-23T02:56:18;6.85;;;2.13;;
55078;SDS011;55187;49.496;6.010;2022-10-23T02:59:10;4.10;;;1.67;;
55078;SDS011;55187;49.496;6.010;2022-10-23T03:01:50;2.05;;;1.67;;
55078;SDS011;55187;49.496;6.010;2022-10-23T03:04:23;10.73;;;2.22;;
55078;SDS011;55187;49.496;6.010;2022-10-23T03:06:52;6.20;;;1.85;;
55078;SDS011;55187;49.496;6.010;2022-10-23T03:09:20;6.63;;;2.70;;
55078;SDS011;55187;49.496;6.010;2022-10-23T03:11:46;5.55;;;2.03;;
55078;SDS011;55187;49.496;6.010;2022-10-23T03:14:12;3.63;;;2.33;;
55078;SDS011;55187;49.496;6.010;2022-10-23T03:16:39;2.50;;;1.60;;
55078;SDS011;55187;49.496;6.010;2022-10-23T03:19:05;4.47;;;1.65;;
55078;SDS011;55187;49.496;6.010;2022-10-23T03:21:31;2.72;;;1.73;;
55078;SDS011;55187;49.496;6.010;2022-10-23T03:23:58;1.70;;;1.52;;
55078;SDS011;55187;49.496;6.010;2022-10-23T03:26:32;6.80;;;2.05;;
55078;SDS011;55187;49.496;6.010;2022-10-23T03:28:58;3.25;;;2.08;;
55078;SDS011;55187;49.496;6.010;2022-10-23T03:31:24;3.50;;;2.15;;
55078;SDS011;55187;49.496;6.010;2022-10-23T03:33:56;3.80;;;1.83;;
55078;SDS011;55187;49.496;6.010;2022-10-23T03:36:22;14.95;;;2.72;;
55078;SDS011;55187;49.496;6.010;2022-10-23T03:38:49;5.57;;;4.07;;
55078;SDS011;55187;49.496;6.010;2022-10-23T03:41:15;9.85;;;2.22;;
55078;SDS011;55187;49.496;6.010;2022-10-23T03:43:43;21.55;;;2.33;;
55078;SDS011;55187;49.496;6.010;2022-10-23T03:46:09;7.90;;;3.50;;
55078;SDS011;55187;49.496;6.010;2022-10-23T03:48:38;11.65;;;2.83;;
55078;SDS011;55187;49.496;6.010;2022-10-23T03:51:04;3.92;;;2.33;;
55078;SDS011;55187;49.496;6.010;2022-10-23T03:53:31;4.65;;;2.47;;
55078;SDS011;55187;49.496;6.010;2022-10-23T03:56:00;10.35;;;2.35;;
55078;SDS011;55187;49.496;6.010;2022-10-23T03:58:27;7.90;;;2.55;;
55078;SDS011;55187;49.496;6.010;2022-10-23T04:00:53;9.95;;;3.25;;
55078;SDS011;55187;49.496;6.010;2022-10-23T04:03:19;5.05;;;3.10;;
55078;SDS011;55187;49.496;6.010;2022-10-23T04:05:46;6.68;;;3.95;;
55078;SDS011;55187;49.496;6.010;2022-10-23T04:08:12;6.32;;;3.53;;
55078;SDS011;55187;49.496;6.010;2022-10-23T04:10:39;10.88;;;3.75;;
55078;SDS011;55187;49.496;6.010;2022-10-23T04:13:05;9.35;;;4.18;;
55078;SDS011;55187;49.496;6.010;2022-10-23T04:15:35;7.40;;;3.08;;
55078;SDS011;55187;49.496;6.010;2022-10-23T04:18:01;5.70;;;3.72;;
55078;SDS011;55187;49.496;6.010;2022-10-23T04:20:30;11.77;;;3.45;;
55078;SDS011;55187;49.496;6.010;2022-10-23T04:23:01;6.03;;;3.15;;
55078;SDS011;55187;49.496;6.010;2022-10-23T04:25:29;7.13;;;3.17;;
55078;SDS011;55187;49.496;6.010;2022-10-23T04:27:55;6.93;;;3.45;;
55078;SDS011;55187;49.496;6.010;2022-10-23T04:30:21;14.07;;;3.75;;
55078;SDS011;55187;49.496;6.010;2022-10-23T04:32:51;11.57;;;3.63;;
55078;SDS011;55187;49.496;6.010;2022-10-23T04:35:18;11.88;;;5.53;;
55078;SDS011;55187;49.496;6.010;2022-10-23T04:37:45;4.72;;;3.20;;
55078;SDS011;55187;49.496;6.010;2022-10-23T04:40:12;5.20;;;2.80;;
55078;SDS011;55187;49.496;6.010;2022-10-23T04:42:38;5.68;;;2.90;;
55078;SDS011;55187;49.496;6.010;2022-10-23T04:45:04;7.95;;;3.58;;
55078;SDS011;55187;49.496;6.010;2022-10-23T04:47:32;7.43;;;3.15;;
55078;SDS011;55187;49.496;6.010;2022-10-23T04:49:59;20.77;;;3.42;;
55078;SDS011;55187;49.496;6.010;2022-10-23T04:52:45;6.65;;;2.92;;
55078;SDS011;55187;49.496;6.010;2022-10-23T04:55:31;7.57;;;3.03;;
55078;SDS011;55187;49.496;6.010;2022-10-23T04:58:10;11.98;;;3.45;;
55078;SDS011;55187;49.496;6.010;2022-10-23T05:00:36;12.13;;;4.18;;
55078;SDS011;55187;49.496;6.010;2022-10-23T05:03:02;15.30;;;3.75;;
55078;SDS011;55187;49.496;6.010;2022-10-23T05:05:37;9.00;;;3.70;;
55078;SDS011;55187;49.496;6.010;2022-10-23T05:08:23;10.07;;;3.05;;
55078;SDS011;55187;49.496;6.010;2022-10-23T05:11:10;12.68;;;3.50;;
55078;SDS011;55187;49.496;6.010;2022-10-23T05:13:42;6.43;;;3.42;;
55078;SDS011;55187;49.496;6.010;2022-10-23T05:16:08;15.07;;;3.67;;
55078;SDS011;55187;49.496;6.010;2022-10-23T05:18:39;8.77;;;3.90;;
55078;SDS011;55187;49.496;6.010;2022-10-23T05:23:48;14.18;;;3.28;;
55078;SDS011;55187;49.496;6.010;2022-10-23T05:26:16;7.25;;;2.97;;
55078;SDS011;55187;49.496;6.010;2022-10-23T05:28:45;6.47;;;3.17;;
55078;SDS011;55187;49.496;6.010;2022-10-23T05:31:15;5.05;;;3.05;;
55078;SDS011;55187;49.496;6.010;2022-10-23T05:33:48;7.95;;;3.40;;
55078;SDS011;55187;49.496;6.010;2022-10-23T05:36:19;12.18;;;3.75;;
55078;SDS011;55187;49.496;6.010;2022-10-23T05:38:50;4.78;;;2.50;;
55078;SDS011;55187;49.496;6.010;2022-10-23T05:41:20;10.85;;;2.88;;
55078;SDS011;55187;49.496;6.010;2022-10-23T05:43:47;9.45;;;3.03;;
55078;SDS011;55187;49.496;6.010;2022-10-23T05:46:17;4.35;;;2.15;;
55078;SDS011;55187;49.496;6.010;2022-10-23T05:48:59;4.07;;;2.80;;
55078;SDS011;55187;49.496;6.010;2022-10-23T05:51:37;17.58;;;4.20;;
55078;SDS011;55187;49.496;6.010;2022-10-23T05:54:20;3.78;;;2.33;;
55078;SDS011;55187;49.496;6.010;2022-10-23T05:56:54;4.75;;;2.00;;
55078;SDS011;55187;49.496;6.010;2022-10-23T05:59:30;6.00;;;2.55;;
55078;SDS011;55187;49.496;6.010;2022-10-23T06:02:09;4.22;;;2.08;;
55078;SDS011;55187;49.496;6.010;2022-10-23T06:04:47;3.13;;;2.17;;
55078;SDS011;55187;49.496;6.010;2022-10-23T06:07:27;4.45;;;2.60;;
55078;SDS011;55187;49.496;6.010;2022-10-23T06:09:55;7.80;;;3.10;;
55078;SDS011;55187;49.496;6.010;2022-10-23T06:12:22;6.10;;;2.92;;
55078;SDS011;55187;49.496;6.010;2022-10-23T06:14:51;3.67;;;2.58;;
55078;SDS011;55187;49.496;6.010;2022-10-23T06:17:19;13.65;;;3.75;;
55078;SDS011;55187;49.496;6.010;2022-10-23T06:19:47;3.92;;;2.47;;
55078;SDS011;55187;49.496;6.010;2022-10-23T06:22:17;6.30;;;2.88;;
55078;SDS011;55187;49.496;6.010;2022-10-23T06:24:49;5.80;;;3.15;;
55078;SDS011;55187;49.496;6.010;2022-10-23T06:27:21;7.28;;;3.10;;
55078;SDS011;55187;49.496;6.010;2022-10-23T06:29:48;4.50;;;2.58;;
55078;SDS011;55187;49.496;6.010;2022-10-23T06:32:15;2.60;;;1.77;;
55078;SDS011;55187;49.496;6.010;2022-10-23T06:34:49;3.92;;;2.30;;
55078;SDS011;55187;49.496;6.010;2022-10-23T06:37:17;5.60;;;3.17;;
55078;SDS011;55187;49.496;6.010;2022-10-23T06:40:00;7.25;;;3.80;;
55078;SDS011;55187;49.496;6.010;2022-10-23T06:42:37;5.70;;;2.20;;
55078;SDS011;55187;49.496;6.010;2022-10-23T06:45:16;6.93;;;3.20;;
55078;SDS011;55187;49.496;6.010;2022-10-23T06:48:03;9.85;;;3.25;;
55078;SDS011;55187;49.496;6.010;2022-10-23T06:50:48;5.95;;;3.85;;
55078;SDS011;55187;49.496;6.010;2022-10-23T06:53:19;7.10;;;3.75;;
55078;SDS011;55187;49.496;6.010;2022-10-23T06:55:51;4.68;;;3.10;;
55078;SDS011;55187;49.496;6.010;2022-10-23T06:58:23;13.95;;;3.25;;
55078;SDS011;55187;49.496;6.010;2022-10-23T07:01:00;10.55;;;4.53;;
55078;SDS011;55187;49.496;6.010;2022-10-23T07:03:29;13.90;;;3.55;;
55078;SDS011;55187;49.496;6.010;2022-10-23T07:06:02;8.70;;;3.70;;
55078;SDS011;55187;49.496;6.010;2022-10-23T07:08:31;6.88;;;3.30;;
55078;SDS011;55187;49.496;6.010;2022-10-23T07:11:02;11.48;;;3.40;;
55078;SDS011;55187;49.496;6.010;2022-10-23T07:13:31;11.60;;;2.88;;
55078;SDS011;55187;49.496;6.010;2022-10-23T07:16:17;16.00;;;4.05;;
55078;SDS011;55187;49.496;6.010;2022-10-23T07:18:48;5.97;;;2.95;;
55078;SDS011;55187;49.496;6.010;2022-10-23T07:21:43;5.72;;;2.80;;
55078;SDS011;55187;49.496;6.010;2022-10-23T07:24:24;13.20;;;3.50;;
55078;SDS011;55187;49.496;6.010;2022-10-23T07:26:50;6.90;;;3.75;;
55078;SDS011;55187;49.496;6.010;2022-10-23T07:29:37;9.20;;;3.92;;
55078;SDS011;55187;49.496;6.010;2022-10-23T07:32:04;9.40;;;3.55;;
55078;SDS011;55187;49.496;6.010;2022-10-23T07:34:42;6.05;;;2.90;;
55078;SDS011;55187;49.496;6.010;2022-10-23T07:37:21;4.97;;;2.75;;
55078;SDS011;55187;49.496;6.010;2022-10-23T07:39:48;6.97;;;2.83;;
55078;SDS011;55187;49.496;6.010;2022-10-23T07:42:14;9.23;;;2.45;;
55078;SDS011;55187;49.496;6.010;2022-10-23T07:44:41;13.60;;;3.20;;
55078;SDS011;55187;49.496;6.010;2022-10-23T07:47:07;7.93;;;2.70;;
55078;SDS011;55187;49.496;6.010;2022-10-23T07:49:34;5.05;;;2.50;;
55078;SDS011;55187;49.496;6.010;2022-10-23T07:52:01;4.63;;;2.25;;
55078;SDS011;55187;49.496;6.010;2022-10-23T07:54:39;8.90;;;2.10;;
55078;SDS011;55187;49.496;6.010;2022-10-23T07:57:16;6.60;;;2.30;;
55078;SDS011;55187;49.496;6.010;2022-10-23T07:59:53;3.60;;;2.00;;
55078;SDS011;55187;49.496;6.010;2022-10-23T08:02:21;7.22;;;2.33;;
55078;SDS011;55187;49.496;6.010;2022-10-23T08:04:49;5.03;;;1.95;;
55078;SDS011;55187;49.496;6.010;2022-10-23T08:07:24;2.95;;;2.05;;
55078;SDS011;55187;49.496;6.010;2022-10-23T08:09:53;3.67;;;2.40;;
55078;SDS011;55187;49.496;6.010;2022-10-23T08:12:20;5.25;;;2.38;;
55078;SDS011;55187;49.496;6.010;2022-10-23T08:14:46;3.15;;;1.83;;
55078;SDS011;55187;49.496;6.010;2022-10-23T08:17:13;5.18;;;1.60;;
55078;SDS011;55187;49.496;6.010;2022-10-23T08:19:57;5.18;;;1.90;;
55078;SDS011;55187;49.496;6.010;2022-10-23T08:22:27;4.40;;;1.60;;
55078;SDS011;55187;49.496;6.010;2022-10-23T08:24:53;4.78;;;2.35;;
55078;SDS011;55187;49.496;6.010;2022-10-23T08:27:20;3.42;;;1.98;;
55078;SDS011;55187;49.496;6.010;2022-10-23T08:29:47;5.05;;;1.77;;
55078;SDS011;55187;49.496;6.010;2022-10-23T08:32:14;5.47;;;1.65;;
55078;SDS011;55187;49.496;6.010;2022-10-23T08:34:52;2.75;;;2.05;;
55078;SDS011;55187;49.496;6.010;2022-10-23T08:37:23;2.88;;;1.80;;
55078;SDS011;55187;49.496;6.010;2022-10-23T08:39:50;4.65;;;2.10;;
55078;SDS011;55187;49.496;6.010;2022-10-23T08:42:23;4.93;;;1.92;;
55078;SDS011;55187;49.496;6.010;2022-10-23T08:47:40;7.30;;;2.30;;
55078;SDS011;55187;49.496;6.010;2022-10-23T08:50:31;5.15;;;1.73;;
55078;SDS011;55187;49.496;6.010;2022-10-23T08:53:14;5.82;;;2.40;;
55078;SDS011;55187;49.496;6.010;2022-10-23T08:55:54;1.55;;;1.33;;
55078;SDS011;55187;49.496;6.010;2022-10-23T08:58:35;5.32;;;2.53;;
55078;SDS011;55187;49.496;6.010;2022-10-23T09:01:26;8.07;;;2.50;;
55078;SDS011;55187;49.496;6.010;2022-10-23T09:04:00;5.25;;;1.80;;
55078;SDS011;55187;49.496;6.010;2022-10-23T09:06:34;5.45;;;2.47;;
55078;SDS011;55187;49.496;6.010;2022-10-23T09:09:16;5.05;;;1.90;;
55078;SDS011;55187;49.496;6.010;2022-10-23T09:12:00;5.85;;;1.83;;
55078;SDS011;55187;49.496;6.010;2022-10-23T09:14:50;4.75;;;1.88;;
55078;SDS011;55187;49.496;6.010;2022-10-23T09:17:34;3.85;;;1.77;;
55078;SDS011;55187;49.496;6.010;2022-10-23T09:22:54;5.43;;;2.63;;
55078;SDS011;55187;49.496;6.010;2022-10-23T09:25:36;2.47;;;1.35;;
55078;SDS011;55187;49.496;6.010;2022-10-23T09:28:04;2.25;;;1.73;;
55078;SDS011;55187;49.496;6.010;2022-10-23T09:30:35;4.72;;;1.75;;
55078;SDS011;55187;49.496;6.010;2022-10-23T09:33:15;2.42;;;1.45;;
55078;SDS011;55187;49.496;6.010;2022-10-23T09:35:57;5.65;;;1.50;;
55078;SDS011;55187;49.496;6.010;2022-10-23T09:38:30;4.82;;;2.03;;
55078;SDS011;55187;49.496;6.010;2022-10-23T09:43:43;3.95;;;1.45;;
55078;SDS011;55187;49.496;6.010;2022-10-23T09:46:09;2.97;;;1.40;;
55078;SDS011;55187;49.496;6.010;2022-10-23T09:48:38;4.32;;;1.25;;
55078;SDS011;55187;49.496;6.010;2022-10-23T09:51:17;3.47;;;1.10;;
55078;SDS011;55187;49.496;6.010;2022-10-23T09:53:48;6.70;;;1.52;;
55078;SDS011;55187;49.496;6.010;2022-10-23T09:56:23;1.95;;;1.48;;
55078;SDS011;55187;49.496;6.010;2022-10-23T09:59:03;3.78;;;1.27;;
55078;SDS011;55187;49.496;6.010;2022-10-23T10:01:51;2.50;;;1.08;;
55078;SDS011;55187;49.496;6.010;2022-10-23T10:04:40;11.02;;;1.90;;
55078;SDS011;55187;49.496;6.010;2022-10-23T10:09:54;4.45;;;1.73;;
55078;SDS011;55187;49.496;6.010;2022-10-23T10:15:11;2.42;;;1.58;;
55078;SDS011;55187;49.496;6.010;2022-10-23T10:17:56;10.10;;;3.70;;
55078;SDS011;55187;49.496;6.010;2022-10-23T10:20:40;1.57;;;0.87;;
55078;SDS011;55187;49.496;6.010;2022-10-23T10:23:31;2.45;;;1.42;;
55078;SDS011;55187;49.496;6.010;2022-10-23T10:32:11;1.98;;;1.20;;
55078;SDS011;55187;49.496;6.010;2022-10-23T10:43:11;3.85;;;1.58;;
55078;SDS011;55187;49.496;6.010;2022-10-23T10:45:58;6.72;;;1.67;;
55078;SDS011;55187;49.496;6.010;2022-10-23T10:51:44;7.75;;;1.90;;
55078;SDS011;55187;49.496;6.010;2022-10-23T11:00:11;5.23;;;2.13;;
55078;SDS011;55187;49.496;6.010;2022-10-23T11:02:45;3.95;;;1.95;;
55078;SDS011;55187;49.496;6.010;2022-10-23T11:05:28;3.40;;;2.20;;
55078;SDS011;55187;49.496;6.010;2022-10-23T11:10:44;5.25;;;2.22;;
55078;SDS011;55187;49.496;6.010;2022-10-23T11:15:55;9.27;;;2.05;;
55078;SDS011;55187;49.496;6.010;2022-10-23T11:18:27;5.25;;;1.67;;
55078;SDS011;55187;49.496;6.010;2022-10-23T11:21:03;5.32;;;1.70;;
55078;SDS011;55187;49.496;6.010;2022-10-23T11:24:00;5.03;;;1.92;;
55078;SDS011;55187;49.496;6.010;2022-10-23T11:29:58;10.43;;;2.25;;
55078;SDS011;55187;49.496;6.010;2022-10-23T11:35:47;7.97;;;2.00;;
55078;SDS011;55187;49.496;6.010;2022-10-23T11:38:34;5.10;;;1.67;;
55078;SDS011;55187;49.496;6.010;2022-10-23T11:41:04;3.95;;;1.95;;
55078;SDS011;55187;49.496;6.010;2022-10-23T11:43:47;4.80;;;1.80;;
55078;SDS011;55187;49.496;6.010;2022-10-23T11:46:29;3.72;;;2.05;;
55078;SDS011;55187;49.496;6.010;2022-10-23T11:48:57;4.55;;;1.73;;
55078;SDS011;55187;49.496;6.010;2022-10-23T11:51:37;5.32;;;1.92;;
55078;SDS011;55187;49.496;6.010;2022-10-23T11:54:20;3.13;;;2.45;;
55078;SDS011;55187;49.496;6.010;2022-10-23T11:56:54;7.55;;;2.25;;
55078;SDS011;55187;49.496;6.010;2022-10-23T11:59:33;8.80;;;1.88;;
55078;SDS011;55187;49.496;6.010;2022-10-23T12:05:04;9.27;;;2.33;;
55078;SDS011;55187;49.496;6.010;2022-10-23T12:07:36;11.20;;;2.17;;
55078;SDS011;55187;49.496;6.010;2022-10-23T12:10:06;8.18;;;1.80;;
55078;SDS011;55187;49.496;6.010;2022-10-23T12:12:56;3.50;;;1.60;;
55078;SDS011;55187;49.496;6.010;2022-10-23T12:15:24;3.83;;;2.00;;
55078;SDS011;55187;49.496;6.010;2022-10-23T12:17:53;4.90;;;1.95;;
55078;SDS011;55187;49.496;6.010;2022-10-23T12:20:38;8.30;;;2.63;;
55078;SDS011;55187;49.496;6.010;2022-10-23T12:23:24;10.00;;;2.30;;
55078;SDS011;55187;49.496;6.010;2022-10-23T12:26:13;4.53;;;2.42;;
55078;SDS011;55187;49.496;6.010;2022-10-23T12:28:52;6.00;;;2.03;;
55078;SDS011;55187;49.496;6.010;2022-10-23T12:31:51;4.00;;;1.65;;
55078;SDS011;55187;49.496;6.010;2022-10-23T12:40:20;4.55;;;2.00;;
55078;SDS011;55187;49.496;6.010;2022-10-23T12:42:56;5.07;;;1.85;;
55078;SDS011;55187;49.496;6.010;2022-10-23T12:45:28;10.70;;;2.08;;
55078;SDS011;55187;49.496;6.010;2022-10-23T12:47:59;5.72;;;2.25;;
55078;SDS011;55187;49.496;6.010;2022-10-23T12:50:26;8.32;;;2.42;;
55078;SDS011;55187;49.496;6.010;2022-10-23T12:53:01;5.50;;;2.42;;
55078;SDS011;55187;49.496;6.010;2022-10-23T12:58:20;12.32;;;2.38;;
55078;SDS011;55187;49.496;6.010;2022-10-23T13:00:51;3.65;;;2.08;;
55078;SDS011;55187;49.496;6.010;2022-10-23T13:03:20;14.27;;;2.72;;
55078;SDS011;55187;49.496;6.010;2022-10-23T13:05:49;5.88;;;2.55;;
55078;SDS011;55187;49.496;6.010;2022-10-23T13:08:17;6.07;;;2.10;;
55078;SDS011;55187;49.496;6.010;2022-10-23T13:11:05;8.10;;;2.65;;
55078;SDS011;55187;49.496;6.010;2022-10-23T13:13:37;15.60;;;2.53;;
55078;SDS011;55187;49.496;6.010;2022-10-23T13:16:13;9.27;;;2.47;;
55078;SDS011;55187;49.496;6.010;2022-10-23T13:18:40;9.27;;;2.70;;
55078;SDS011;55187;49.496;6.010;2022-10-23T13:21:13;4.10;;;1.92;;
55078;SDS011;55187;49.496;6.010;2022-10-23T13:23:49;12.02;;;2.75;;
55078;SDS011;55187;49.496;6.010;2022-10-23T13:29:17;7.32;;;2.38;;
55078;SDS011;55187;49.496;6.010;2022-10-23T13:31:51;8.32;;;2.50;;
55078;SDS011;55187;49.496;6.010;2022-10-23T13:34:21;15.70;;;3.13;;
55078;SDS011;55187;49.496;6.010;2022-10-23T13:36:55;10.38;;;2.80;;
55078;SDS011;55187;49.496;6.010;2022-10-23T13:39:26;8.85;;;2.25;;
55078;SDS011;55187;49.496;6.010;2022-10-23T13:42:11;6.20;;;2.63;;
55078;SDS011;55187;49.496;6.010;2022-10-23T13:44:40;8.25;;;2.10;;
55078;SDS011;55187;49.496;6.010;2022-10-23T13:47:10;11.30;;;2.70;;
55078;SDS011;55187;49.496;6.010;2022-10-23T13:49:37;12.85;;;2.90;;
55078;SDS011;55187;49.496;6.010;2022-10-23T13:52:04;12.70;;;3.38;;
55078;SDS011;55187;49.496;6.010;2022-10-23T13:54:41;10.07;;;3.40;;
55078;SDS011;55187;49.496;6.010;2022-10-23T13:57:10;4.70;;;1.98;;
55078;SDS011;55187;49.496;6.010;2022-10-23T13:59:39;9.18;;;3.30;;
55078;SDS011;55187;49.496;6.010;2022-10-23T14:02:17;9.93;;;2.60;;
55078;SDS011;55187;49.496;6.010;2022-10-23T14:04:48;7.10;;;2.80;;
55078;SDS011;55187;49.496;6.010;2022-10-23T14:07:16;5.53;;;2.60;;
55078;SDS011;55187;49.496;6.010;2022-10-23T14:09:42;9.32;;;3.15;;
55078;SDS011;55187;49.496;6.010;2022-10-23T14:12:09;20.48;;;4.35;;
55078;SDS011;55187;49.496;6.010;2022-10-23T14:14:37;5.18;;;1.98;;
55078;SDS011;55187;49.496;6.010;2022-10-23T14:17:04;8.73;;;3.10;;
55078;SDS011;55187;49.496;6.010;2022-10-23T14:19:31;10.45;;;2.80;;
55078;SDS011;55187;49.496;6.010;2022-10-23T14:21:58;11.57;;;3.40;;
55078;SDS011;55187;49.496;6.010;2022-10-23T14:24:25;13.40;;;3.58;;
55078;SDS011;55187;49.496;6.010;2022-10-23T14:26:53;6.80;;;2.83;;
55078;SDS011;55187;49.496;6.010;2022-10-23T14:29:49;7.32;;;2.58;;
55078;SDS011;55187;49.496;6.010;2022-10-23T14:32:16;11.63;;;4.20;;
55078;SDS011;55187;49.496;6.010;2022-10-23T14:34:48;19.55;;;3.47;;
55078;SDS011;55187;49.496;6.010;2022-10-23T14:40:43;12.00;;;4.53;;
55078;SDS011;55187;49.496;6.010;2022-10-23T14:43:17;10.13;;;2.75;;
55078;SDS011;55187;49.496;6.010;2022-10-23T14:45:43;13.18;;;4.40;;
55078;SDS011;55187;49.496;6.010;2022-10-23T14:48:17;18.38;;;3.28;;
55078;SDS011;55187;49.496;6.010;2022-10-23T14:51:47;18.45;;;3.53;;
55078;SDS011;55187;49.496;6.010;2022-10-23T14:54:15;7.13;;;3.42;;
55078;SDS011;55187;49.496;6.010;2022-10-23T14:56:52;10.57;;;4.65;;
55078;SDS011;55187;49.496;6.010;2022-10-23T14:59:18;13.05;;;4.05;;
55078;SDS011;55187;49.496;6.010;2022-10-23T15:01:44;10.32;;;3.78;;
55078;SDS011;55187;49.496;6.010;2022-10-23T15:04:11;16.52;;;3.95;;
55078;SDS011;55187;49.496;6.010;2022-10-23T15:06:39;16.95;;;3.97;;
55078;SDS011;55187;49.496;6.010;2022-10-23T15:09:08;12.18;;;4.18;;
55078;SDS011;55187;49.496;6.010;2022-10-23T15:11:34;14.93;;;3.50;;
55078;SDS011;55187;49.496;6.010;2022-10-23T15:14:01;13.00;;;3.58;;
55078;SDS011;55187;49.496;6.010;2022-10-23T15:16:27;16.25;;;4.15;;
55078;SDS011;55187;49.496;6.010;2022-10-23T15:18:54;12.65;;;3.97;;
55078;SDS011;55187;49.496;6.010;2022-10-23T15:21:20;8.82;;;3.25;;
55078;SDS011;55187;49.496;6.010;2022-10-23T15:23:47;15.35;;;3.70;;
55078;SDS011;55187;49.496;6.010;2022-10-23T15:26:15;16.42;;;4.07;;
55078;SDS011;55187;49.496;6.010;2022-10-23T15:28:46;16.20;;;6.38;;
55078;SDS011;55187;49.496;6.010;2022-10-23T15:34:12;6.70;;;2.97;;
55078;SDS011;55187;49.496;6.010;2022-10-23T15:36:42;9.10;;;4.15;;
55078;SDS011;55187;49.496;6.010;2022-10-23T15:39:09;19.15;;;4.47;;
55078;SDS011;55187;49.496;6.010;2022-10-23T15:41:38;12.20;;;4.60;;
55078;SDS011;55187;49.496;6.010;2022-10-23T15:44:06;13.18;;;5.00;;
55078;SDS011;55187;49.496;6.010;2022-10-23T15:46:34;15.40;;;3.80;;
55078;SDS011;55187;49.496;6.010;2022-10-23T15:49:00;22.98;;;4.45;;
55078;SDS011;55187;49.496;6.010;2022-10-23T15:51:27;13.13;;;2.50;;
55078;SDS011;55187;49.496;6.010;2022-10-23T15:53:54;8.63;;;2.13;;
55078;SDS011;55187;49.496;6.010;2022-10-23T15:56:22;5.57;;;1.55;;
55078;SDS011;55187;49.496;6.010;2022-10-23T15:58:49;5.82;;;2.10;;
55078;SDS011;55187;49.496;6.010;2022-10-23T16:01:15;6.45;;;2.80;;
55078;SDS011;55187;49.496;6.010;2022-10-23T16:03:42;5.70;;;1.58;;
55078;SDS011;55187;49.496;6.010;2022-10-23T16:06:10;2.67;;;1.38;;
55078;SDS011;55187;49.496;6.010;2022-10-23T16:08:38;7.65;;;1.10;;
55078;SDS011;55187;49.496;6.010;2022-10-23T16:11:11;3.85;;;1.65;;
55078;SDS011;55187;49.496;6.010;2022-10-23T16:13:39;4.28;;;2.13;;
55078;SDS011;55187;49.496;6.010;2022-10-23T16:16:05;3.40;;;1.70;;
55078;SDS011;55187;49.496;6.010;2022-10-23T16:18:32;7.25;;;1.60;;
55078;SDS011;55187;49.496;6.010;2022-10-23T16:20:58;4.60;;;1.27;;
55078;SDS011;55187;49.496;6.010;2022-10-23T16:23:25;3.53;;;1.63;;
55078;SDS011;55187;49.496;6.010;2022-10-23T16:25:53;4.35;;;1.08;;
55078;SDS011;55187;49.496;6.010;2022-10-23T16:28:20;1.48;;;0.90;;
55078;SDS011;55187;49.496;6.010;2022-10-23T16:30:46;3.47;;;1.20;;
55078;SDS011;55187;49.496;6.010;2022-10-23T16:33:13;1.70;;;1.05;;
55078;SDS011;55187;49.496;6.010;2022-10-23T16:35:39;2.03;;;1.38;;
55078;SDS011;55187;49.496;6.010;2022-10-23T16:38:14;1.88;;;1.17;;
55078;SDS011;55187;49.496;6.010;2022-10-23T16:40:40;4.25;;;1.52;;
55078;SDS011;55187;49.496;6.010;2022-10-23T16:43:19;6.57;;;1.13;;